createdAt,value
2023-04-03T00:01:11.024Z,70.41
2023-04-03T00:06:14.939Z,70.28
2023-04-03T00:11:13.448Z,69.50
2023-04-03T00:16:12.381Z,69.97
2023-04-03T00:21:07.031Z,70.29
2023-04-03T00:26:10.514Z,70.38
2023-04-03T00:31:08.786Z,70.23
2023-04-03T00:36:07.817Z,70.66
2023-04-03T00:41:12.019Z,70.39
2023-04-03T00:46:06.039Z,70.26
2023-04-03T00:51:00.894Z,70.74
2023-04-03T00:56:00.269Z,70.98
2023-04-03T01:01:06.308Z,71.53
2023-04-03T01:06:02.195Z,71.15
2023-04-03T01:11:01.620Z,71.59
2023-04-03T01:15:57.594Z,71.26
2023-04-03T01:21:43.217Z,70.46
2023-04-03T01:26:53.089Z,70.56
2023-04-03T01:32:03.069Z,70.54
2023-04-03T01:36:59.549Z,70.91
2023-04-03T01:41:57.886Z,70.85
2023-04-03T01:47:08.534Z,71.72
2023-04-03T01:52:08.803Z,71.81
2023-04-03T01:57:05.360Z,71.84
2023-04-03T02:01:59.470Z,71.29
2023-04-03T02:06:55.055Z,72.18
2023-04-03T02:11:48.960Z,71.62
2023-04-03T02:16:44.524Z,72.07
2023-04-03T02:21:38.586Z,71.84
2023-04-03T02:26:35.478Z,72.97
2023-04-03T02:31:43.647Z,73.76
2023-04-03T02:36:39.787Z,73.21
2023-04-03T02:41:37.713Z,72.75
2023-04-03T02:46:39.443Z,73.64
2023-04-03T02:51:34.940Z,73.86
2023-04-03T02:56:35.903Z,73.79
2023-04-03T03:01:37.006Z,74.28
2023-04-03T03:06:36.872Z,76.01
2023-04-03T03:11:45.177Z,74.89
2023-04-03T03:16:49.846Z,75.21
2023-04-03T03:21:53.864Z,75.10
2023-04-03T03:27:17.695Z,75.89
2023-04-03T03:32:34.967Z,76.29
2023-04-03T03:37:35.826Z,76.89
2023-04-03T03:42:37.624Z,76.75
2023-04-03T03:47:42.617Z,76.78
2023-04-03T03:52:36.593Z,77.14
2023-04-03T03:57:37.566Z,75.90
2023-04-03T04:02:37.625Z,76.02
2023-04-03T04:07:41.289Z,77.22
2023-04-03T04:12:38.731Z,78.42
2023-04-03T04:17:32.738Z,80.59
2023-04-03T04:22:29.372Z,81.94
2023-04-03T04:27:28.694Z,83.00
2023-04-03T04:32:45.231Z,84.09
2023-04-03T04:37:49.420Z,84.04
2023-04-03T04:42:47.947Z,82.87
2023-04-03T04:47:53.804Z,82.90
2023-04-03T04:53:02.709Z,83.91
2023-04-03T04:58:09.613Z,84.44
2023-04-03T05:03:03.571Z,85.08
2023-04-03T05:07:58.346Z,84.44
2023-04-03T05:12:58.879Z,85.53
2023-04-03T05:17:55.073Z,86.81
2023-04-03T05:22:54.332Z,84.58
2023-04-03T05:27:48.621Z,84.06
2023-04-03T05:32:51.431Z,84.46
2023-04-03T05:37:53.637Z,84.40
2023-04-03T05:42:51.071Z,83.88
2023-04-03T05:47:52.059Z,82.70
2023-04-03T05:53:00.565Z,81.71
2023-04-03T05:58:00.319Z,80.77
2023-04-03T06:03:11.576Z,79.44
2023-04-03T06:08:48.598Z,77.99
2023-04-03T06:18:44.810Z,76.22
2023-04-03T06:23:50.214Z,76.64
2023-04-03T06:28:44.367Z,76.75
2023-04-03T06:33:42.111Z,76.02
2023-04-03T06:38:40.517Z,75.06
2023-04-03T06:43:42.911Z,74.14
2023-04-03T06:48:58.518Z,73.31
2023-04-03T06:53:54.332Z,73.71
2023-04-03T06:58:55.818Z,72.05
2023-04-03T07:03:52.755Z,70.70
2023-04-03T07:09:03.161Z,68.62
2023-04-03T07:14:52.294Z,68.49
2023-04-03T07:19:47.224Z,70.11
2023-04-03T07:24:41.570Z,69.29
2023-04-03T07:29:38.683Z,68.77
2023-04-03T07:34:37.597Z,67.37
2023-04-03T07:39:54.834Z,66.77
2023-04-03T07:44:51.599Z,66.79
2023-04-03T07:49:59.204Z,64.99
2023-04-03T07:54:56.577Z,66.47
2023-04-03T08:00:07.351Z,66.89
2023-04-03T08:05:09.250Z,64.73
2023-04-03T08:10:16.871Z,62.83
2023-04-03T08:15:14.048Z,64.96
2023-04-03T08:20:19.645Z,64.08
2023-04-03T08:25:21.970Z,65.01
2023-04-03T08:30:18.886Z,62.86
2023-04-03T08:35:13.462Z,62.14
2023-04-03T08:40:16.239Z,64.31
2023-04-03T08:45:17.293Z,61.80
2023-04-03T08:50:34.255Z,60.04
2023-04-03T08:55:48.824Z,61.90
2023-04-03T09:00:50.927Z,59.04
2023-04-03T09:05:52.360Z,57.53
2023-04-03T09:10:49.011Z,57.15
2023-04-03T09:15:58.719Z,57.41
2023-04-03T09:21:14.693Z,57.99
2023-04-03T09:26:41.234Z,60.50
2023-04-03T09:31:46.141Z,57.59
2023-04-03T09:36:48.867Z,55.55
2023-04-03T09:41:57.630Z,57.37
2023-04-03T09:46:53.661Z,57.81
2023-04-03T09:51:55.738Z,56.50
2023-04-03T09:56:57.141Z,59.12
2023-04-03T10:02:20.889Z,56.74
2023-04-03T10:08:11.376Z,56.06
2023-04-03T10:13:09.393Z,56.53
2023-04-03T10:18:33.008Z,56.12
2023-04-03T10:23:49.993Z,57.03
2023-04-03T10:28:50.520Z,56.26
2023-04-03T10:33:55.637Z,54.61
2023-04-03T10:39:03.421Z,54.71
2023-04-03T10:44:07.557Z,57.90
2023-04-03T10:49:14.334Z,58.42
2023-04-03T10:54:15.461Z,51.39
2023-04-03T10:59:19.009Z,53.98
2023-04-03T11:04:14.034Z,53.23
2023-04-03T11:09:19.478Z,50.71
2023-04-03T11:14:17.436Z,52.48
2023-04-03T11:19:22.684Z,52.17
2023-04-03T11:24:23.299Z,48.31
2023-04-03T11:29:34.452Z,47.96
2023-04-03T11:34:39.423Z,48.17
2023-04-03T11:39:36.987Z,48.59
2023-04-03T11:44:38.795Z,50.73
2023-04-03T11:50:11.456Z,47.97
2023-04-03T11:55:52.412Z,45.88
2023-04-03T12:01:10.104Z,48.48
2023-04-03T12:06:41.070Z,48.13
2023-04-03T12:11:42.557Z,52.31
2023-04-03T12:16:47.086Z,50.56
2023-04-03T12:22:10.479Z,50.94
2023-04-03T12:27:12.458Z,51.45
2023-04-03T12:32:19.402Z,53.29
2023-04-03T12:37:27.694Z,52.57
2023-04-03T12:42:36.891Z,50.28
2023-04-03T12:47:34.228Z,50.92
2023-04-03T12:52:44.877Z,53.12
2023-04-03T12:57:43.501Z,54.24
2023-04-03T13:02:38.653Z,54.22
2023-04-03T13:07:38.637Z,55.66
2023-04-03T13:12:36.028Z,55.91
2023-04-03T13:17:38.891Z,56.72
2023-04-03T13:22:43.481Z,57.64
2023-04-03T13:27:38.105Z,57.36
2023-04-03T13:32:35.858Z,58.48
2023-04-03T13:37:31.505Z,58.65
2023-04-03T13:42:27.546Z,60.10
2023-04-03T13:47:23.247Z,60.32
2023-04-03T13:52:37.320Z,60.68
2023-04-03T13:57:30.989Z,60.94
2023-04-03T14:02:33.165Z,61.48
2023-04-03T14:07:27.398Z,61.71
2023-04-03T14:12:31.724Z,62.63
2023-04-03T14:17:28.886Z,63.76
2023-04-03T14:22:28.155Z,64.03
2023-04-03T14:27:25.038Z,64.10
2023-04-03T14:32:24.313Z,64.62
2023-04-03T14:37:23.544Z,65.56
2023-04-03T14:42:21.743Z,65.73
2023-04-03T14:47:29.800Z,65.68
2023-04-03T14:52:28.204Z,66.20
2023-04-03T14:57:22.045Z,66.46
2023-04-03T15:02:29.554Z,66.68
2023-04-03T15:07:23.708Z,67.21
2023-04-03T15:12:16.890Z,67.29
2023-04-03T15:17:17.214Z,67.62
2023-04-03T15:22:16.691Z,68.66
2023-04-03T15:27:13.644Z,68.92
2023-04-03T15:32:14.797Z,69.85
2023-04-03T15:37:08.091Z,70.38
2023-04-03T15:42:07.083Z,71.04
2023-04-03T15:47:00.710Z,71.40
2023-04-03T15:51:53.899Z,72.11
2023-04-03T15:56:47.080Z,72.62
2023-04-03T16:01:42.608Z,72.59
2023-04-03T16:06:36.051Z,72.56
2023-04-03T16:11:29.912Z,73.82
2023-04-03T16:16:23.570Z,73.65
2023-04-03T16:21:19.225Z,74.62
2023-04-03T16:26:12.620Z,74.91
2023-04-03T16:31:08.084Z,75.33
2023-04-03T16:36:01.636Z,75.75
2023-04-03T16:40:58.182Z,76.78
2023-04-03T16:45:51.586Z,77.39
2023-04-03T16:50:53.849Z,78.12
2023-04-03T16:55:51.326Z,79.06
2023-04-03T17:00:48.250Z,80.20
2023-04-03T17:05:41.877Z,81.98
2023-04-03T17:10:36.474Z,84.18
2023-04-03T17:15:29.849Z,85.84
2023-04-03T17:20:29.142Z,87.43
2023-04-03T17:25:25.054Z,88.93
2023-04-03T17:30:20.573Z,91.03
2023-04-03T17:35:13.753Z,93.08
2023-04-03T17:40:16.479Z,94.76
2023-04-03T17:45:10.903Z,95.68
2023-04-03T17:50:04.386Z,96.26
2023-04-03T17:54:58.880Z,94.96
2023-04-03T17:59:55.813Z,93.69
2023-04-03T18:04:55.928Z,93.36
2023-04-03T18:09:52.971Z,95.70
2023-04-03T18:14:47.220Z,98.05
2023-04-03T18:19:42.065Z,99.15
2023-04-03T18:24:36.682Z,99.96
2023-04-03T18:29:42.398Z,100.00
2023-04-03T18:34:35.724Z,99.87
2023-04-03T18:39:38.045Z,99.24
2023-04-03T18:44:33.646Z,99.14
2023-04-03T18:49:32.799Z,98.87
2023-04-03T18:54:28.219Z,98.82
2023-04-03T18:59:25.220Z,99.23
2023-04-03T19:04:18.889Z,98.94
2023-04-03T19:09:16.217Z,98.51
2023-04-03T19:19:16.985Z,98.24
2023-04-03T19:24:11.074Z,98.23
2023-04-03T19:29:11.823Z,98.40
2023-04-03T19:34:16.335Z,98.52
2023-04-03T19:39:14.058Z,98.80
2023-04-03T19:44:17.686Z,99.90
2023-04-03T19:49:17.736Z,100.00
2023-04-03T19:54:13.470Z,100.00
2023-04-03T19:59:07.371Z,100.00
2023-04-03T20:04:10.777Z,100.00
2023-04-03T20:09:07.248Z,100.00
2023-04-03T20:14:05.993Z,100.00
2023-04-03T20:19:00.661Z,100.00
2023-04-03T20:23:53.939Z,98.91
2023-04-03T20:28:48.650Z,99.00
2023-04-03T20:33:54.675Z,99.25
2023-04-03T20:38:49.080Z,99.68
2023-04-03T20:43:56.605Z,99.84
2023-04-03T20:49:01.870Z,100.00
2023-04-03T20:54:07.100Z,100.00
2023-04-03T20:59:02.588Z,100.00
2023-04-03T21:04:39.955Z,100.00
2023-04-03T21:10:10.638Z,100.00
2023-04-03T21:15:41.337Z,100.00
2023-04-03T21:20:42.353Z,100.00
2023-04-03T21:25:54.821Z,100.00
2023-04-03T21:30:52.929Z,100.00
2023-04-03T21:35:48.137Z,100.00
2023-04-03T21:40:41.645Z,100.00
2023-04-03T21:45:35.273Z,100.00
2023-04-03T21:50:28.586Z,100.00
2023-04-03T21:55:23.708Z,100.00
2023-04-03T22:00:17.703Z,99.94
2023-04-03T22:05:11.417Z,98.21
2023-04-03T22:10:05.140Z,94.29
2023-04-03T22:15:00.689Z,93.72
2023-04-03T22:19:54.068Z,93.44
2023-04-03T22:24:47.309Z,94.79
2023-04-03T22:29:40.686Z,95.23
2023-04-03T22:34:39.725Z,95.75
2023-04-03T22:39:33.001Z,95.15
2023-04-03T22:44:29.649Z,95.54
2023-04-03T22:49:25.452Z,95.17
2023-04-03T22:54:20.098Z,94.95
2023-04-03T22:59:13.415Z,94.95
2023-04-03T23:04:06.765Z,95.46
2023-04-03T23:09:00.244Z,95.41
2023-04-03T23:13:54.777Z,95.06
2023-04-03T23:18:50.112Z,95.48
2023-04-03T23:23:43.528Z,95.47
2023-04-03T23:28:38.090Z,95.14
2023-04-03T23:33:33.484Z,94.94
2023-04-03T23:38:26.922Z,94.85
2023-04-03T23:43:20.209Z,94.64
2023-04-03T23:48:13.456Z,94.24
2023-04-03T23:53:08.658Z,94.00
2023-04-03T23:58:01.991Z,94.15
